Airfield :
LOGIN :

Register | Disclaimer

   EN    FR    IT 

 










Legend :    VFR   Marginal VFR   IFR   Intensive IFR   Very Intensive IFR
Visi :
Ceiling :
>= 8 km
>= 3000ft
5 to 8 km
1000 to 3000 ft
1500m to 5 km
500 to 1000 ft
800 to 1500m
200 to 500 ft
< 800m
< 200 ft
Symbols :   Thunderstorms  Fog  Heavy snow  Heavy precipitations  Wind > 20 kt
SIGMETs :     Misc.  Thunderstorms  Icing  Turbulence  Mountain Waves  Volcanic Ashes







- Airport Elevation : 935 ft


EBFS - Florennes

CURRENT METAR :
  • 160625Z VRB02KT 9999 SCT200 10/08 Q1018 BLU BLU

EXPIRED METARs :
  • 160555Z VRB01KT 9999 SCT200 11/08 Q1018 BLU BLU
  • 160525Z VRB01KT 9999 FEW100 SCT230 11/08 Q1018 BLU BLU
  • 160455Z VRB01KT 9999 FEW100 SCT230 11/08 Q1018 BLU BLU
  • 160425Z VRB01KT 9999 FEW100 10/08 Q1018 BLU BLU
  • 160355Z 10003KT 9999 FEW100 12/08 Q1017 BLU BLU
  • 160340Z VRB02KT 9999 FEW100 11/08 Q1017 BLU BLU

TAF TAF EBFS
Valid from the 16 at 07:00 until the 16 at 16:00 UTC


160541Z 1607/1616 10004KT 9999 SCT240
TEMPO 1607/1609 VRB02KT FEW180 BKN220
No reported NOTAMs for that airfield.



MET'MAP, your aeronautical weather chart ! - Copyright ORBIFLY December 2007 - Disclaimer

ORBIFLY MET'MAP TEAM :

Programming & Development : Alexandra Zaïnal
Concept & Development : Baudouin d'Aumeries
Co-Development & Prog : Marc-Olivier Méhu
Technical & hardware support : Manuel Goepfert

Contact : metmap@orbifly.com




SOURCES & CREDITS :

   NOAA